sensor_id;sensor_type;location;lat;lon;timestamp;pressure;altitude;pressure_sealevel;temperature;humidity
77003;BME280;65939;50.060;14.288;2023-02-28T00:00:04;98304.34;;;-0.66;72.78
77003;BME280;65939;50.060;14.288;2023-02-28T00:02:10;98306.13;;;-0.68;72.53
77003;BME280;65939;50.060;14.288;2023-02-28T00:04:11;98303.63;;;-0.70;72.20
77003;BME280;65939;50.060;14.288;2023-02-28T00:06:12;98303.56;;;-0.68;73.12
77003;BME280;65939;50.060;14.288;2023-02-28T00:08:13;98299.25;;;-0.68;72.57
77003;BME280;65939;50.060;14.288;2023-02-28T00:10:22;98300.13;;;-0.67;72.62
77003;BME280;65939;50.060;14.288;2023-02-28T00:12:23;98300.13;;;-0.67;72.98
77003;BME280;65939;50.060;14.288;2023-02-28T00:14:24;98300.97;;;-0.67;72.57
77003;BME280;65939;50.060;14.288;2023-02-28T00:16:25;98303.53;;;-0.67;72.99
77003;BME280;65939;50.060;14.288;2023-02-28T00:18:26;98300.16;;;-0.69;73.08
77003;BME280;65939;50.060;14.288;2023-02-28T00:20:27;98298.44;;;-0.68;72.69
77003;BME280;65939;50.060;14.288;2023-02-28T00:22:30;98300.13;;;-0.67;72.90
77003;BME280;65939;50.060;14.288;2023-02-28T00:24:34;98298.44;;;-0.68;72.92
77003;BME280;65939;50.060;14.288;2023-02-28T00:26:37;98303.56;;;-0.68;73.14
77003;BME280;65939;50.060;14.288;2023-02-28T00:28:38;98300.13;;;-0.67;73.16
77003;BME280;65939;50.060;14.288;2023-02-28T00:30:39;98298.41;;;-0.67;72.82
77003;BME280;65939;50.060;14.288;2023-02-28T00:32:42;98302.63;;;-0.66;72.93
77003;BME280;65939;50.060;14.288;2023-02-28T00:34:42;98306.81;;;-0.63;73.36
77003;BME280;65939;50.060;14.288;2023-02-28T00:36:46;98297.38;;;-0.63;73.39
77003;BME280;65939;50.060;14.288;2023-02-28T00:38:50;98301.56;;;-0.60;73.17
77003;BME280;65939;50.060;14.288;2023-02-28T00:40:53;98306.59;;;-0.59;72.80
77003;BME280;65939;50.060;14.288;2023-02-28T00:42:57;98301.41;;;-0.57;73.20
77003;BME280;65939;50.060;14.288;2023-02-28T00:45:00;98301.47;;;-0.59;73.32
77003;BME280;65939;50.060;14.288;2023-02-28T00:47:07;98299.81;;;-0.60;73.27
77003;BME280;65939;50.060;14.288;2023-02-28T00:49:08;98300.56;;;-0.58;73.11
77003;BME280;65939;50.060;14.288;2023-02-28T00:51:11;98305.59;;;-0.55;72.62
77003;BME280;65939;50.060;14.288;2023-02-28T00:53:15;98297.06;;;-0.55;73.00
77003;BME280;65939;50.060;14.288;2023-02-28T00:55:16;98301.28;;;-0.54;72.75
77003;BME280;65939;50.060;14.288;2023-02-28T00:57:26;98297.78;;;-0.52;73.28
77003;BME280;65939;50.060;14.288;2023-02-28T00:59:30;98285.78;;;-0.51;72.87
77003;BME280;65939;50.060;14.288;2023-02-28T01:01:33;98292.53;;;-0.49;73.09
77003;BME280;65939;50.060;14.288;2023-02-28T01:03:40;98292.56;;;-0.50;73.26
77003;BME280;65939;50.060;14.288;2023-02-28T01:05:48;98291.63;;;-0.47;73.16
77003;BME280;65939;50.060;14.288;2023-02-28T01:07:49;98289.88;;;-0.47;72.95
77003;BME280;65939;50.060;14.288;2023-02-28T01:09:52;98295.00;;;-0.47;73.19
77003;BME280;65939;50.060;14.288;2023-02-28T01:12:00;98297.56;;;-0.47;72.91
77003;BME280;65939;50.060;14.288;2023-02-28T01:14:03;98295.84;;;-0.46;73.22
77003;BME280;65939;50.060;14.288;2023-02-28T01:16:05;98291.56;;;-0.46;72.38
77003;BME280;65939;50.060;14.288;2023-02-28T01:18:09;98289.75;;;-0.44;72.40
77003;BME280;65939;50.060;14.288;2023-02-28T01:20:11;98287.91;;;-0.40;72.79
77003;BME280;65939;50.060;14.288;2023-02-28T01:22:11;98287.00;;;-0.39;72.89
77003;BME280;65939;50.060;14.288;2023-02-28T01:24:21;98283.44;;;-0.35;72.83
77003;BME280;65939;50.060;14.288;2023-02-28T01:26:22;98283.34;;;-0.34;73.03
77003;BME280;65939;50.060;14.288;2023-02-28T01:28:25;98291.88;;;-0.33;72.58
77003;BME280;65939;50.060;14.288;2023-02-28T01:30:27;98285.84;;;-0.32;72.66
77003;BME280;65939;50.060;14.288;2023-02-28T01:32:31;98295.22;;;-0.31;72.61
77003;BME280;65939;50.060;14.288;2023-02-28T01:34:32;98294.44;;;-0.33;72.80
77003;BME280;65939;50.060;14.288;2023-02-28T01:36:33;98288.41;;;-0.32;73.01
77003;BME280;65939;50.060;14.288;2023-02-28T01:38:36;98288.41;;;-0.32;72.35
77003;BME280;65939;50.060;14.288;2023-02-28T01:40:36;98278.16;;;-0.32;72.58
77003;BME280;65939;50.060;14.288;2023-02-28T01:42:37;98285.00;;;-0.33;72.64
77003;BME280;65939;50.060;14.288;2023-02-28T01:45:01;98288.50;;;-0.34;72.63
77003;BME280;65939;50.060;14.288;2023-02-28T01:47:06;98287.78;;;-0.37;73.09
77003;BME280;65939;50.060;14.288;2023-02-28T01:49:15;98281.94;;;-0.41;72.32
77003;BME280;65939;50.060;14.288;2023-02-28T01:53:57;98273.47;;;-0.43;73.04
77003;BME280;65939;50.060;14.288;2023-02-28T01:56:06;98275.28;;;-0.45;72.61
77003;BME280;65939;50.060;14.288;2023-02-28T01:58:08;98277.84;;;-0.45;72.82
77003;BME280;65939;50.060;14.288;2023-02-28T02:00:15;98271.75;;;-0.42;73.28
77003;BME280;65939;50.060;14.288;2023-02-28T02:02:21;98270.84;;;-0.41;72.59
77003;BME280;65939;50.060;14.288;2023-02-28T02:04:38;98270.84;;;-0.41;72.87
77003;BME280;65939;50.060;14.288;2023-02-28T02:06:45;98271.69;;;-0.41;73.28
77003;BME280;65939;50.060;14.288;2023-02-28T02:08:49;98271.69;;;-0.41;73.13
77003;BME280;65939;50.060;14.288;2023-02-28T02:10:59;98272.50;;;-0.40;73.17
77003;BME280;65939;50.060;14.288;2023-02-28T02:15:49;98271.81;;;-0.44;72.80
77003;BME280;65939;50.060;14.288;2023-02-28T02:18:00;98264.19;;;-0.45;72.84
77003;BME280;65939;50.060;14.288;2023-02-28T02:20:46;98265.06;;;-0.46;72.85
77003;BME280;65939;50.060;14.288;2023-02-28T02:22:58;98265.97;;;-0.47;73.35
77003;BME280;65939;50.060;14.288;2023-02-28T02:32:20;98265.25;;;-0.51;72.26
77003;BME280;65939;50.060;14.288;2023-02-28T02:34:42;98263.63;;;-0.54;72.50
77003;BME280;65939;50.060;14.288;2023-02-28T02:39:14;98263.63;;;-0.54;71.73
77003;BME280;65939;50.060;14.288;2023-02-28T02:41:34;98267.00;;;-0.52;72.39
77003;BME280;65939;50.060;14.288;2023-02-28T02:46:34;98265.22;;;-0.50;71.83
77003;BME280;65939;50.060;14.288;2023-02-28T02:48:40;98260.97;;;-0.51;72.03
77003;BME280;65939;50.060;14.288;2023-02-28T02:50:46;98266.09;;;-0.51;71.45
77003;BME280;65939;50.060;14.288;2023-02-28T02:52:55;98263.59;;;-0.52;71.83
77003;BME280;65939;50.060;14.288;2023-02-28T02:55:00;98269.63;;;-0.53;71.82
77003;BME280;65939;50.060;14.288;2023-02-28T02:57:19;98272.31;;;-0.56;70.96
77003;BME280;65939;50.060;14.288;2023-02-28T02:59:22;98265.66;;;-0.60;70.92
77003;BME280;65939;50.060;14.288;2023-02-28T03:01:27;98264.03;;;-0.63;71.07
77003;BME280;65939;50.060;14.288;2023-02-28T03:03:33;98276.03;;;-0.63;70.98
77003;BME280;65939;50.060;14.288;2023-02-28T03:05:47;98270.19;;;-0.67;71.24
77003;BME280;65939;50.060;14.288;2023-02-28T03:07:48;98275.34;;;-0.68;71.63
77003;BME280;65939;50.060;14.288;2023-02-28T03:09:51;98273.81;;;-0.73;70.83
77003;BME280;65939;50.060;14.288;2023-02-28T03:11:56;98280.69;;;-0.73;71.17
77003;BME280;65939;50.060;14.288;2023-02-28T03:14:19;98275.63;;;-0.75;70.83
77003;BME280;65939;50.060;14.288;2023-02-28T03:16:34;98278.31;;;-0.78;71.04
77003;BME280;65939;50.060;14.288;2023-02-28T03:23:41;98270.94;;;-0.85;71.37
77003;BME280;65939;50.060;14.288;2023-02-28T03:26:04;98276.28;;;-0.91;71.06
77003;BME280;65939;50.060;14.288;2023-02-28T03:28:38;98273.91;;;-0.96;71.36
77003;BME280;65939;50.060;14.288;2023-02-28T03:30:55;98273.19;;;-1.00;71.23
77003;BME280;65939;50.060;14.288;2023-02-28T03:32:59;98266.50;;;-1.04;71.35
77003;BME280;65939;50.060;14.288;2023-02-28T03:35:22;98271.88;;;-1.10;71.03
77003;BME280;65939;50.060;14.288;2023-02-28T03:37:29;98273.75;;;-1.15;71.25
77003;BME280;65939;50.060;14.288;2023-02-28T03:39:42;98273.88;;;-1.18;71.61
77003;BME280;65939;50.060;14.288;2023-02-28T03:41:48;98266.38;;;-1.23;71.26
77003;BME280;65939;50.060;14.288;2023-02-28T03:44:07;98277.69;;;-1.28;71.29
77003;BME280;65939;50.060;14.288;2023-02-28T03:46:21;98271.00;;;-1.32;71.90
77003;BME280;65939;50.060;14.288;2023-02-28T03:48:37;98274.69;;;-1.39;71.38
77003;BME280;65939;50.060;14.288;2023-02-28T03:50:49;98275.78;;;-1.45;71.74
77003;BME280;65939;50.060;14.288;2023-02-28T03:53:08;98268.22;;;-1.50;72.03
77003;BME280;65939;50.060;14.288;2023-02-28T03:55:15;98268.47;;;-1.56;71.82
77003;BME280;65939;50.060;14.288;2023-02-28T04:00:14;98264.59;;;-1.66;72.04
77003;BME280;65939;50.060;14.288;2023-02-28T04:02:18;98264.81;;;-1.72;72.14
77003;BME280;65939;50.060;14.288;2023-02-28T04:04:19;98265.81;;;-1.76;72.46
77003;BME280;65939;50.060;14.288;2023-02-28T04:06:22;98271.09;;;-1.81;72.57
77003;BME280;65939;50.060;14.288;2023-02-28T04:08:23;98276.31;;;-1.84;72.56
77003;BME280;65939;50.060;14.288;2023-02-28T04:10:24;98279.88;;;-1.88;73.18
77003;BME280;65939;50.060;14.288;2023-02-28T04:12:25;98278.31;;;-1.92;72.94
77003;BME280;65939;50.060;14.288;2023-02-28T04:14:31;98279.28;;;-1.96;72.94
77003;BME280;65939;50.060;14.288;2023-02-28T04:16:34;98270.97;;;-2.01;73.13
77003;BME280;65939;50.060;14.288;2023-02-28T04:18:35;98279.56;;;-2.04;73.12
77003;BME280;65939;50.060;14.288;2023-02-28T04:20:36;98276.28;;;-2.07;73.35
77003;BME280;65939;50.060;14.288;2023-02-28T04:22:44;98279.84;;;-2.11;73.43
77003;BME280;65939;50.060;14.288;2023-02-28T04:24:48;98279.94;;;-2.14;73.52
77003;BME280;65939;50.060;14.288;2023-02-28T04:26:52;98282.66;;;-2.19;73.60
77003;BME280;65939;50.060;14.288;2023-02-28T04:28:53;98282.69;;;-2.21;73.68
77003;BME280;65939;50.060;14.288;2023-02-28T04:30:59;98284.53;;;-2.24;73.74
77003;BME280;65939;50.060;14.288;2023-02-28T04:33:01;98282.09;;;-2.27;73.93
77003;BME280;65939;50.060;14.288;2023-02-28T04:35:03;98286.41;;;-2.29;74.13
77003;BME280;65939;50.060;14.288;2023-02-28T04:37:05;98289.88;;;-2.30;74.01
77003;BME280;65939;50.060;14.288;2023-02-28T04:39:06;98289.97;;;-2.33;73.94
77003;BME280;65939;50.060;14.288;2023-02-28T04:41:07;98284.06;;;-2.35;73.92
77003;BME280;65939;50.060;14.288;2023-02-28T04:43:08;98286.69;;;-2.37;74.20
77003;BME280;65939;50.060;14.288;2023-02-28T04:45:09;98283.38;;;-2.41;74.27
77003;BME280;65939;50.060;14.288;2023-02-28T04:47:10;98282.59;;;-2.43;74.38
77003;BME280;65939;50.060;14.288;2023-02-28T04:49:13;98290.25;;;-2.43;74.43
77003;BME280;65939;50.060;14.288;2023-02-28T04:51:17;98287.75;;;-2.44;74.43
77003;BME280;65939;50.060;14.288;2023-02-28T04:53:18;98291.25;;;-2.47;74.29
77003;BME280;65939;50.060;14.288;2023-02-28T04:55:19;98295.59;;;-2.49;74.36
77003;BME280;65939;50.060;14.288;2023-02-28T04:57:20;98294.78;;;-2.51;74.14
77003;BME280;65939;50.060;14.288;2023-02-28T04:59:21;98295.69;;;-2.52;74.67
77003;BME280;65939;50.060;14.288;2023-02-28T05:03:24;98291.56;;;-2.56;74.61
77003;BME280;65939;50.060;14.288;2023-02-28T05:05:25;98290.75;;;-2.58;74.74
77003;BME280;65939;50.060;14.288;2023-02-28T05:07:26;98305.31;;;-2.60;74.69
77003;BME280;65939;50.060;14.288;2023-02-28T05:09:27;98297.75;;;-2.63;74.92
77003;BME280;65939;50.060;14.288;2023-02-28T05:11:31;98304.63;;;-2.65;75.01
77003;BME280;65939;50.060;14.288;2023-02-28T05:13:36;98296.16;;;-2.67;75.28
77003;BME280;65939;50.060;14.288;2023-02-28T05:15:37;98303.06;;;-2.69;74.79
77003;BME280;65939;50.060;14.288;2023-02-28T05:17:37;98298.84;;;-2.70;75.13
77003;BME280;65939;50.060;14.288;2023-02-28T05:19:38;98301.50;;;-2.73;75.34
77003;BME280;65939;50.060;14.288;2023-02-28T05:21:41;98300.69;;;-2.75;75.10
77003;BME280;65939;50.060;14.288;2023-02-28T05:23:42;98309.25;;;-2.76;74.92
77003;BME280;65939;50.060;14.288;2023-02-28T05:25:43;98307.63;;;-2.79;75.45
77003;BME280;65939;50.060;14.288;2023-02-28T05:27:44;98305.94;;;-2.80;75.14
77003;BME280;65939;50.060;14.288;2023-02-28T05:29:45;98311.97;;;-2.81;75.41
77003;BME280;65939;50.060;14.288;2023-02-28T05:31:46;98314.53;;;-2.82;75.52
77003;BME280;65939;50.060;14.288;2023-02-28T05:33:46;98312.88;;;-2.83;75.41
77003;BME280;65939;50.060;14.288;2023-02-28T05:35:47;98314.59;;;-2.84;75.30
77003;BME280;65939;50.060;14.288;2023-02-28T05:37:48;98306.97;;;-2.85;75.45
77003;BME280;65939;50.060;14.288;2023-02-28T05:39:48;98319.75;;;-2.85;75.29
77003;BME280;65939;50.060;14.288;2023-02-28T05:41:49;98318.06;;;-2.86;75.25
77003;BME280;65939;50.060;14.288;2023-02-28T05:43:50;98318.97;;;-2.87;75.82
77003;BME280;65939;50.060;14.288;2023-02-28T05:45:51;98316.44;;;-2.89;75.52
77003;BME280;65939;50.060;14.288;2023-02-28T05:47:55;98322.44;;;-2.90;75.78
77003;BME280;65939;50.060;14.288;2023-02-28T05:50:01;98321.63;;;-2.91;75.60
77003;BME280;65939;50.060;14.288;2023-02-28T05:52:07;98322.50;;;-2.92;75.55
77003;BME280;65939;50.060;14.288;2023-02-28T05:54:08;98330.16;;;-2.92;75.52
77003;BME280;65939;50.060;14.288;2023-02-28T05:56:12;98325.91;;;-2.93;75.71
77003;BME280;65939;50.060;14.288;2023-02-28T05:58:13;98331.84;;;-2.92;75.91
77003;BME280;65939;50.060;14.288;2023-02-28T06:00:17;98334.47;;;-2.94;75.59
77003;BME280;65939;50.060;14.288;2023-02-28T06:02:18;98331.03;;;-2.93;75.66
77003;BME280;65939;50.060;14.288;2023-02-28T06:04:20;98331.84;;;-2.92;75.49
77003;BME280;65939;50.060;14.288;2023-02-28T06:06:21;98336.94;;;-2.91;75.73
77003;BME280;65939;50.060;14.288;2023-02-28T06:08:22;98337.84;;;-2.92;76.08
77003;BME280;65939;50.060;14.288;2023-02-28T06:10:23;98342.81;;;-2.89;75.77
77003;BME280;65939;50.060;14.288;2023-02-28T06:12:24;98336.84;;;-2.87;75.89
77003;BME280;65939;50.060;14.288;2023-02-28T06:14:25;98348.75;;;-2.86;75.69
77003;BME280;65939;50.060;14.288;2023-02-28T06:16:27;98352.94;;;-2.85;75.76
77003;BME280;65939;50.060;14.288;2023-02-28T06:18:28;98350.41;;;-2.85;75.67
77003;BME280;65939;50.060;14.288;2023-02-28T06:20:29;98350.38;;;-2.84;75.63
77003;BME280;65939;50.060;14.288;2023-02-28T06:22:30;98355.41;;;-2.82;75.56
77003;BME280;65939;50.060;14.288;2023-02-28T06:24:31;98355.34;;;-2.79;75.87
77003;BME280;65939;50.060;14.288;2023-02-28T06:26:32;98360.38;;;-2.78;75.87
77003;BME280;65939;50.060;14.288;2023-02-28T06:28:33;98359.44;;;-2.74;75.27
77003;BME280;65939;50.060;14.288;2023-02-28T06:30:34;98363.66;;;-2.73;75.42
77003;BME280;65939;50.060;14.288;2023-02-28T06:32:34;98364.44;;;-2.71;75.55
77003;BME280;65939;50.060;14.288;2023-02-28T06:34:36;98366.06;;;-2.68;75.77
77003;BME280;65939;50.060;14.288;2023-02-28T06:36:40;98368.59;;;-2.67;75.49
77003;BME280;65939;50.060;14.288;2023-02-28T06:38:42;98365.91;;;-2.63;75.69
77003;BME280;65939;50.060;14.288;2023-02-28T06:40:44;98369.22;;;-2.60;75.41
77003;BME280;65939;50.060;14.288;2023-02-28T06:42:44;98373.38;;;-2.56;75.35
77003;BME280;65939;50.060;14.288;2023-02-28T06:44:45;98375.78;;;-2.51;74.96
77003;BME280;65939;50.060;14.288;2023-02-28T06:46:46;98373.94;;;-2.48;75.15
77003;BME280;65939;50.060;14.288;2023-02-28T06:48:47;98380.69;;;-2.45;74.95
77003;BME280;65939;50.060;14.288;2023-02-28T06:50:48;98380.53;;;-2.41;74.46
77003;BME280;65939;50.060;14.288;2023-02-28T06:52:49;98378.66;;;-2.35;74.32
77003;BME280;65939;50.060;14.288;2023-02-28T06:54:54;98378.56;;;-2.32;74.61
77003;BME280;65939;50.060;14.288;2023-02-28T06:57:00;98386.16;;;-2.29;74.48
77003;BME280;65939;50.060;14.288;2023-02-28T06:59:03;98388.53;;;-2.23;74.31
77003;BME280;65939;50.060;14.288;2023-02-28T07:01:04;98392.66;;;-2.19;74.20
77003;BME280;65939;50.060;14.288;2023-02-28T07:03:04;98388.25;;;-2.15;73.80
77003;BME280;65939;50.060;14.288;2023-02-28T07:05:06;98389.84;;;-2.11;73.95
77003;BME280;65939;50.060;14.288;2023-02-28T07:07:06;98393.13;;;-2.08;73.64
77003;BME280;65939;50.060;14.288;2023-02-28T07:09:07;98391.31;;;-2.04;73.52
77003;BME280;65939;50.060;14.288;2023-02-28T07:11:08;98390.31;;;-2.00;73.40
77003;BME280;65939;50.060;14.288;2023-02-28T07:13:09;98391.84;;;-1.95;73.00
77003;BME280;65939;50.060;14.288;2023-02-28T07:15:10;98384.91;;;-1.91;73.02
77003;BME280;65939;50.060;14.288;2023-02-28T07:17:11;98389.03;;;-1.87;72.97
77003;BME280;65939;50.060;14.288;2023-02-28T07:19:13;98390.59;;;-1.83;73.10
77003;BME280;65939;50.060;14.288;2023-02-28T07:21:15;98398.91;;;-1.76;72.67
77003;BME280;65939;50.060;14.288;2023-02-28T07:23:16;98397.00;;;-1.71;72.21
77003;BME280;65939;50.060;14.288;2023-02-28T07:25:17;98388.38;;;-1.67;72.37
77003;BME280;65939;50.060;14.288;2023-02-28T07:27:17;98394.09;;;-1.60;72.00
77003;BME280;65939;50.060;14.288;2023-02-28T07:29:24;98403.38;;;-1.58;71.52
77003;BME280;65939;50.060;14.288;2023-02-28T07:31:24;98393.13;;;-1.56;71.09
77003;BME280;65939;50.060;14.288;2023-02-28T07:33:25;98398.97;;;-1.53;71.10
77003;BME280;65939;50.060;14.288;2023-02-28T07:35:26;98411.63;;;-1.50;71.34
77003;BME280;65939;50.060;14.288;2023-02-28T07:37:26;98404.66;;;-1.45;70.82
77003;BME280;65939;50.060;14.288;2023-02-28T07:39:27;98411.31;;;-1.40;71.09
77003;BME280;65939;50.060;14.288;2023-02-28T07:41:28;98406.88;;;-1.35;70.48
77003;BME280;65939;50.060;14.288;2023-02-28T07:43:31;98412.72;;;-1.32;70.14
77003;BME280;65939;50.060;14.288;2023-02-28T07:45:32;98406.63;;;-1.28;69.99
77003;BME280;65939;50.060;14.288;2023-02-28T07:47:34;98409.00;;;-1.23;69.63
77003;BME280;65939;50.060;14.288;2023-02-28T07:49:38;98407.09;;;-1.18;69.86
77003;BME280;65939;50.060;14.288;2023-02-28T07:51:38;98418.03;;;-1.13;69.63
77003;BME280;65939;50.060;14.288;2023-02-28T07:53:40;98410.28;;;-1.11;69.06
77003;BME280;65939;50.060;14.288;2023-02-28T07:55:41;98415.22;;;-1.07;69.15
77003;BME280;65939;50.060;14.288;2023-02-28T07:57:41;98421.94;;;-1.03;69.69
77003;BME280;65939;50.060;14.288;2023-02-28T07:59:42;98409.78;;;-0.98;69.47
77003;BME280;65939;50.060;14.288;2023-02-28T08:01:43;98410.50;;;-0.94;69.00
77003;BME280;65939;50.060;14.288;2023-02-28T08:03:44;98406.09;;;-0.90;68.62
77003;BME280;65939;50.060;14.288;2023-02-28T08:05:46;98410.22;;;-0.86;68.77
77003;BME280;65939;50.060;14.288;2023-02-28T08:07:49;98410.22;;;-0.86;68.66
77003;BME280;65939;50.060;14.288;2023-02-28T08:09:49;98413.47;;;-0.81;68.45
77003;BME280;65939;50.060;14.288;2023-02-28T08:11:50;98405.53;;;-0.75;68.37
77003;BME280;65939;50.060;14.288;2023-02-28T08:13:51;98413.88;;;-0.70;68.59
77003;BME280;65939;50.060;14.288;2023-02-28T08:15:51;98412.88;;;-0.66;68.28
77003;BME280;65939;50.060;14.288;2023-02-28T08:17:52;98417.00;;;-0.62;67.97
77003;BME280;65939;50.060;14.288;2023-02-28T08:19:53;98406.72;;;-0.62;67.13
77003;BME280;65939;50.060;14.288;2023-02-28T08:21:54;98416.81;;;-0.57;67.44
77003;BME280;65939;50.060;14.288;2023-02-28T08:23:55;98403.03;;;-0.55;67.57
77003;BME280;65939;50.060;14.288;2023-02-28T08:25:57;98408.84;;;-0.50;67.51
77003;BME280;65939;50.060;14.288;2023-02-28T08:28:02;98411.22;;;-0.45;66.98
77003;BME280;65939;50.060;14.288;2023-02-28T08:30:03;98406.72;;;-0.40;67.36
77003;BME280;65939;50.060;14.288;2023-02-28T08:32:07;98408.34;;;-0.37;66.88
77003;BME280;65939;50.060;14.288;2023-02-28T08:34:09;98404.84;;;-0.35;67.21
77003;BME280;65939;50.060;14.288;2023-02-28T08:36:12;98400.53;;;-0.34;66.59
77003;BME280;65939;50.060;14.288;2023-02-28T08:38:12;98406.31;;;-0.29;66.96
77003;BME280;65939;50.060;14.288;2023-02-28T08:40:14;98404.31;;;-0.21;67.34
77003;BME280;65939;50.060;14.288;2023-02-28T08:42:20;98408.28;;;-0.14;66.36
77003;BME280;65939;50.060;14.288;2023-02-28T08:44:21;98413.28;;;-0.11;66.11
77003;BME280;65939;50.060;14.288;2023-02-28T08:46:22;98409.84;;;-0.10;65.79
77003;BME280;65939;50.060;14.288;2023-02-28T08:48:24;98405.41;;;-0.06;65.86
77003;BME280;65939;50.060;14.288;2023-02-28T08:50:25;98400.91;;;-0.01;65.83
77003;BME280;65939;50.060;14.288;2023-02-28T08:52:26;98404.91;;;0.06;65.69
77003;BME280;65939;50.060;14.288;2023-02-28T08:54:29;98414.84;;;0.14;65.34
77003;BME280;65939;50.060;14.288;2023-02-28T08:56:31;98408.72;;;0.18;65.36
77003;BME280;65939;50.060;14.288;2023-02-28T08:58:33;98405.88;;;0.24;65.47
77003;BME280;65939;50.060;14.288;2023-02-28T09:00:34;98423.59;;;0.30;65.58
77003;BME280;65939;50.060;14.288;2023-02-28T09:02:36;98413.09;;;0.36;65.48
77003;BME280;65939;50.060;14.288;2023-02-28T09:04:38;98418.84;;;0.41;64.80
77003;BME280;65939;50.060;14.288;2023-02-28T09:06:50;98410.88;;;0.47;64.78
77003;BME280;65939;50.060;14.288;2023-02-28T09:08:52;98413.22;;;0.54;64.99
77003;BME280;65939;50.060;14.288;2023-02-28T09:10:53;98416.31;;;0.60;64.37
77003;BME280;65939;50.060;14.288;2023-02-28T09:12:54;98409.47;;;0.61;63.77
77003;BME280;65939;50.060;14.288;2023-02-28T09:14:55;98406.00;;;0.62;63.77
77003;BME280;65939;50.060;14.288;2023-02-28T09:16:56;98405.91;;;0.63;62.77
77003;BME280;65939;50.060;14.288;2023-02-28T09:18:57;98411.88;;;0.64;63.17
77003;BME280;65939;50.060;14.288;2023-02-28T09:20:57;98408.31;;;0.68;62.87
77003;BME280;65939;50.060;14.288;2023-02-28T09:23:01;98402.81;;;0.76;62.69
77003;BME280;65939;50.060;14.288;2023-02-28T09:25:02;98406.78;;;0.83;63.32
77003;BME280;65939;50.060;14.288;2023-02-28T09:27:07;98409.94;;;0.89;62.86
77003;BME280;65939;50.060;14.288;2023-02-28T09:29:08;98404.50;;;0.95;62.83
77003;BME280;65939;50.060;14.288;2023-02-28T09:31:16;98407.72;;;1.01;61.70
77003;BME280;65939;50.060;14.288;2023-02-28T09:33:21;98402.38;;;1.05;61.54
77003;BME280;65939;50.060;14.288;2023-02-28T09:35:24;98406.53;;;1.08;61.37
77003;BME280;65939;50.060;14.288;2023-02-28T09:37:24;98402.78;;;1.15;60.77
77003;BME280;65939;50.060;14.288;2023-02-28T09:39:29;98406.88;;;1.19;60.23
77003;BME280;65939;50.060;14.288;2023-02-28T09:41:42;98401.59;;;1.22;60.70
77003;BME280;65939;50.060;14.288;2023-02-28T09:43:56;98401.16;;;1.31;60.88
77003;BME280;65939;50.060;14.288;2023-02-28T09:48:22;98408.06;;;1.50;60.11
77003;BME280;65939;50.060;14.288;2023-02-28T09:50:35;98412.06;;;1.55;60.38
77003;BME280;65939;50.060;14.288;2023-02-28T09:52:45;98412.63;;;1.62;60.57
77003;BME280;65939;50.060;14.288;2023-02-28T09:54:49;98405.34;;;1.70;60.15
77003;BME280;65939;50.060;14.288;2023-02-28T09:56:55;98409.41;;;1.76;60.19
77003;BME280;65939;50.060;14.288;2023-02-28T10:01:21;98408.75;;;1.89;60.12
77003;BME280;65939;50.060;14.288;2023-02-28T10:03:31;98411.00;;;1.96;59.85
77003;BME280;65939;50.060;14.288;2023-02-28T10:05:42;98412.38;;;2.03;60.49
77003;BME280;65939;50.060;14.288;2023-02-28T10:10:20;98413.75;;;2.10;59.63
77003;BME280;65939;50.060;14.288;2023-02-28T10:12:23;98418.75;;;2.13;58.87
77003;BME280;65939;50.060;14.288;2023-02-28T10:14:30;98417.09;;;2.12;58.53
77003;BME280;65939;50.060;14.288;2023-02-28T10:16:46;98407.59;;;2.12;58.62
77003;BME280;65939;50.060;14.288;2023-02-28T10:19:17;98401.34;;;2.18;58.81
77003;BME280;65939;50.060;14.288;2023-02-28T10:21:37;98416.63;;;2.21;58.22
77003;BME280;65939;50.060;14.288;2023-02-28T10:23:39;98405.56;;;2.19;58.77
77003;BME280;65939;50.060;14.288;2023-02-28T10:25:44;98412.16;;;2.25;57.92
77003;BME280;65939;50.060;14.288;2023-02-28T10:27:50;98414.06;;;2.21;58.47
77003;BME280;65939;50.060;14.288;2023-02-28T10:29:56;98408.69;;;2.26;59.09
77003;BME280;65939;50.060;14.288;2023-02-28T10:32:01;98412.53;;;2.34;59.18
77003;BME280;65939;50.060;14.288;2023-02-28T10:34:03;98402.91;;;2.38;58.95
77003;BME280;65939;50.060;14.288;2023-02-28T10:36:17;98405.25;;;2.43;58.35
77003;BME280;65939;50.060;14.288;2023-02-28T10:38:28;98408.56;;;2.45;58.02
77003;BME280;65939;50.060;14.288;2023-02-28T10:40:33;98402.28;;;2.50;58.26
77003;BME280;65939;50.060;14.288;2023-02-28T10:42:35;98402.81;;;2.57;58.95
77003;BME280;65939;50.060;14.288;2023-02-28T10:44:39;98400.81;;;2.62;58.72
77003;BME280;65939;50.060;14.288;2023-02-28T10:46:41;98399.75;;;2.66;59.05
77003;BME280;65939;50.060;14.288;2023-02-28T10:49:01;98389.22;;;2.71;58.52
77003;BME280;65939;50.060;14.288;2023-02-28T10:51:04;98387.47;;;2.71;57.97
77003;BME280;65939;50.060;14.288;2023-02-28T10:55:20;98396.97;;;2.86;58.21
77003;BME280;65939;50.060;14.288;2023-02-28T10:57:23;98394.31;;;2.88;57.84
77003;BME280;65939;50.060;14.288;2023-02-28T10:59:31;98397.81;;;2.87;58.22
77003;BME280;65939;50.060;14.288;2023-02-28T11:03:34;98391.66;;;2.90;57.98
77003;BME280;65939;50.060;14.288;2023-02-28T11:05:39;98387.91;;;2.95;58.59
77003;BME280;65939;50.060;14.288;2023-02-28T11:07:41;98394.50;;;3.01;58.01
77003;BME280;65939;50.060;14.288;2023-02-28T11:09:46;98392.03;;;2.99;57.04
77003;BME280;65939;50.060;14.288;2023-02-28T11:11:50;98389.59;;;2.96;57.03
77003;BME280;65939;50.060;14.288;2023-02-28T11:13:56;98393.00;;;2.97;57.40
77003;BME280;65939;50.060;14.288;2023-02-28T11:16:02;98391.94;;;3.01;57.73
77003;BME280;65939;50.060;14.288;2023-02-28T11:20:20;98375.63;;;3.00;56.98
77003;BME280;65939;50.060;14.288;2023-02-28T11:22:28;98392.19;;;2.96;56.94
77003;BME280;65939;50.060;14.288;2023-02-28T11:24:42;98386.94;;;2.98;56.96
77003;BME280;65939;50.060;14.288;2023-02-28T11:26:46;98386.50;;;3.05;56.92
77003;BME280;65939;50.060;14.288;2023-02-28T11:29:08;98372.47;;;3.11;56.86
77003;BME280;65939;50.060;14.288;2023-02-28T11:33:58;98382.44;;;3.01;56.71
77003;BME280;65939;50.060;14.288;2023-02-28T11:35:57;98374.44;;;3.06;57.83